createdAt,value
2017-12-11T00:00:49.850Z,78.70
2017-12-11T00:03:17.282Z,78.70
2017-12-11T00:05:45.598Z,78.60
2017-12-11T00:08:13.022Z,78.60
2017-12-11T00:10:40.472Z,78.50
2017-12-11T00:13:08.673Z,78.60
2017-12-11T00:15:36.106Z,78.50
2017-12-11T00:18:04.317Z,78.40
2017-12-11T00:20:31.750Z,78.30
2017-12-11T00:22:59.190Z,78.40
2017-12-11T00:25:27.403Z,78.50
2017-12-11T00:27:54.859Z,78.40
2017-12-11T00:30:22.285Z,78.30
2017-12-11T00:32:50.497Z,78.30
2017-12-11T00:35:17.930Z,78.30
2017-12-11T00:37:45.358Z,78.20
2017-12-11T00:40:13.577Z,78.20
2017-12-11T00:42:41.007Z,78.20
2017-12-11T00:45:09.218Z,78.10
2017-12-11T00:47:36.650Z,78.10
2017-12-11T00:50:04.140Z,78.30
2017-12-11T00:52:32.289Z,77.70
2017-12-11T00:54:59.727Z,77.70
2017-12-11T00:57:27.936Z,77.90
2017-12-11T00:59:55.364Z,77.70
2017-12-11T01:02:22.805Z,78.10
2017-12-11T01:04:51.013Z,78.30
2017-12-11T01:07:18.441Z,78.30
2017-12-11T01:09:46.639Z,78.00
2017-12-11T01:12:14.097Z,78.00
2017-12-11T01:14:41.526Z,78.30
2017-12-11T01:17:09.731Z,78.40
2017-12-11T01:19:37.178Z,78.40
2017-12-11T01:22:04.606Z,78.30
2017-12-11T01:24:32.818Z,78.80
2017-12-11T01:27:00.244Z,78.50
2017-12-11T01:29:28.484Z,78.50
2017-12-11T01:31:55.906Z,78.50
2017-12-11T01:34:23.338Z,78.50
2017-12-11T01:36:51.555Z,78.60
2017-12-11T01:39:18.986Z,78.60
2017-12-11T01:41:46.426Z,78.70
2017-12-11T01:44:14.621Z,78.70
2017-12-11T01:46:42.065Z,78.70
2017-12-11T01:49:09.502Z,78.80
2017-12-11T01:51:36.924Z,78.70
2017-12-11T01:54:04.369Z,78.80
2017-12-11T01:56:31.801Z,78.70
2017-12-11T01:58:59.256Z,78.80
2017-12-11T02:01:26.686Z,78.90
2017-12-11T02:03:54.121Z,78.80
2017-12-11T02:06:21.570Z,78.80
2017-12-11T02:08:49.011Z,78.90
2017-12-11T02:11:16.445Z,79.00
2017-12-11T02:13:43.886Z,79.00
2017-12-11T02:16:12.121Z,79.10
2017-12-11T02:18:39.556Z,78.90
2017-12-11T02:21:06.984Z,78.90
2017-12-11T02:23:34.414Z,79.10
2017-12-11T02:26:01.842Z,79.00
2017-12-11T02:28:29.290Z,79.10
2017-12-11T02:30:56.721Z,79.10
2017-12-11T02:33:24.195Z,79.00
2017-12-11T02:35:51.630Z,79.00
2017-12-11T02:38:19.060Z,79.00
2017-12-11T02:40:46.493Z,79.10
2017-12-11T02:43:13.925Z,79.10
2017-12-11T02:45:41.357Z,79.10
2017-12-11T02:48:08.790Z,79.10
2017-12-11T02:50:37.020Z,79.10
2017-12-11T02:53:05.254Z,79.10
2017-12-11T02:55:32.691Z,79.10
2017-12-11T02:58:00.132Z,79.20
2017-12-11T03:00:27.574Z,79.10
2017-12-11T03:02:55.023Z,79.10
2017-12-11T03:05:22.470Z,79.10
2017-12-11T03:07:49.930Z,79.10
2017-12-11T03:10:17.361Z,79.10
2017-12-11T03:12:44.795Z,79.20
2017-12-11T03:15:13.011Z,79.10
2017-12-11T03:17:40.430Z,79.10
2017-12-11T03:20:08.664Z,79.10
2017-12-11T03:22:36.083Z,79.10
2017-12-11T03:25:03.515Z,79.20
2017-12-11T03:27:31.735Z,79.20
2017-12-11T03:29:59.157Z,79.20
2017-12-11T03:32:27.393Z,79.30
2017-12-11T03:34:54.809Z,79.30
2017-12-11T03:37:22.239Z,79.30
2017-12-11T03:39:50.444Z,79.40
2017-12-11T03:42:18.137Z,79.40
2017-12-11T03:44:45.575Z,79.40
2017-12-11T03:47:13.009Z,79.40
2017-12-11T03:49:40.439Z,79.40
2017-12-11T03:52:08.645Z,79.50
2017-12-11T03:54:36.073Z,79.40
2017-12-11T03:57:04.283Z,79.40
2017-12-11T03:59:31.706Z,79.40
2017-12-11T04:01:59.910Z,79.50
2017-12-11T04:04:27.340Z,79.40
2017-12-11T04:06:55.646Z,79.40
2017-12-11T04:09:23.857Z,79.40
2017-12-11T04:11:51.308Z,79.40
2017-12-11T04:14:18.725Z,79.40
2017-12-11T04:16:46.165Z,79.40
2017-12-11T04:19:14.365Z,79.50
2017-12-11T04:21:41.837Z,79.40
2017-12-11T04:24:09.270Z,79.50
2017-12-11T04:26:36.705Z,79.50
2017-12-11T04:29:04.925Z,79.50
2017-12-11T04:31:32.351Z,79.50
2017-12-11T04:33:59.802Z,79.60
2017-12-11T04:36:27.997Z,79.70
2017-12-11T04:38:55.435Z,80.40
2017-12-11T04:41:23.645Z,79.70
2017-12-11T04:43:51.083Z,79.70
2017-12-11T04:46:18.517Z,79.80
2017-12-11T04:48:46.735Z,79.80
2017-12-11T04:51:14.174Z,79.70
2017-12-11T04:53:41.603Z,79.90
2017-12-11T04:56:09.810Z,79.80
2017-12-11T04:58:37.258Z,79.80
2017-12-11T05:01:04.694Z,79.90
2017-12-11T05:03:32.914Z,79.90
2017-12-11T05:06:00.355Z,79.90
2017-12-11T05:08:27.811Z,79.90
2017-12-11T05:10:55.240Z,79.90
2017-12-11T05:13:23.453Z,79.90
2017-12-11T05:15:50.914Z,79.90
2017-12-11T05:18:18.344Z,79.90
2017-12-11T05:20:45.778Z,79.90
2017-12-11T05:23:13.970Z,79.90
2017-12-11T05:25:42.199Z,79.90
2017-12-11T05:28:09.642Z,79.80
2017-12-11T05:30:37.078Z,79.90
2017-12-11T05:33:04.527Z,79.90
2017-12-11T05:35:31.958Z,79.90
2017-12-11T05:38:00.183Z,79.80
2017-12-11T05:40:27.614Z,79.80
2017-12-11T05:42:55.069Z,80.00
2017-12-11T05:45:22.498Z,80.00
2017-12-11T05:47:49.922Z,80.00
2017-12-11T05:50:17.364Z,80.00
2017-12-11T05:52:44.802Z,80.00
2017-12-11T05:55:12.243Z,80.00
2017-12-11T05:57:40.451Z,80.10
2017-12-11T06:00:07.914Z,80.00
2017-12-11T06:02:35.347Z,80.00
2017-12-11T06:05:02.776Z,80.10
2017-12-11T06:07:30.995Z,80.10
2017-12-11T06:09:58.417Z,80.10
2017-12-11T06:12:26.628Z,80.00
2017-12-11T06:14:54.084Z,80.00
2017-12-11T06:17:21.492Z,80.10
2017-12-11T06:19:49.694Z,80.00
2017-12-11T06:22:17.125Z,80.00
2017-12-11T06:24:45.333Z,80.20
2017-12-11T06:27:12.766Z,80.20
2017-12-11T06:29:40.979Z,80.40
2017-12-11T06:32:08.447Z,80.30
2017-12-11T06:34:35.893Z,80.30
2017-12-11T06:37:03.327Z,80.30
2017-12-11T06:39:30.793Z,80.30
2017-12-11T06:41:58.218Z,80.30
2017-12-11T06:44:25.647Z,80.40
2017-12-11T06:46:53.089Z,80.40
2017-12-11T06:49:20.523Z,80.40
2017-12-11T06:51:47.970Z,80.40
2017-12-11T06:54:15.401Z,80.40
2017-12-11T06:56:43.610Z,80.40
2017-12-11T06:59:11.053Z,80.30
2017-12-11T07:01:38.510Z,80.40
2017-12-11T07:04:05.950Z,80.30
2017-12-11T07:06:34.151Z,80.40
2017-12-11T07:09:01.594Z,80.20
2017-12-11T07:11:29.812Z,80.30
2017-12-11T07:13:57.258Z,80.30
2017-12-11T07:16:24.698Z,80.30
2017-12-11T07:18:52.132Z,80.40
2017-12-11T07:21:20.320Z,80.50
2017-12-11T07:23:47.787Z,80.50
2017-12-11T07:26:15.210Z,80.50
2017-12-11T07:28:42.648Z,80.50
2017-12-11T07:31:10.094Z,80.50
2017-12-11T07:33:37.539Z,80.40
2017-12-11T07:36:04.988Z,80.40
2017-12-11T07:38:32.409Z,80.40
2017-12-11T07:41:00.634Z,80.40
2017-12-11T07:43:28.073Z,80.40
2017-12-11T07:45:55.498Z,80.40
2017-12-11T07:48:23.706Z,80.30
2017-12-11T07:50:51.137Z,80.30
2017-12-11T07:53:18.594Z,81.10
2017-12-11T07:55:46.021Z,80.40
2017-12-11T07:58:13.454Z,81.10
2017-12-11T08:00:40.890Z,80.70
2017-12-11T08:03:08.318Z,80.40
2017-12-11T08:05:35.768Z,80.50
2017-12-11T08:08:03.966Z,80.50
2017-12-11T08:10:31.398Z,80.50
2017-12-11T08:12:59.610Z,80.60
2017-12-11T08:15:27.037Z,80.60
2017-12-11T08:17:54.482Z,80.60
2017-12-11T08:20:22.685Z,80.60
2017-12-11T08:22:50.151Z,80.60
2017-12-11T08:25:17.582Z,80.70
2017-12-11T08:27:45.775Z,80.80
2017-12-11T08:30:13.232Z,80.80
2017-12-11T08:32:40.650Z,80.80
2017-12-11T08:35:08.862Z,80.90
2017-12-11T08:37:36.294Z,80.90
2017-12-11T08:40:04.527Z,80.90
2017-12-11T08:42:31.964Z,80.90
2017-12-11T08:44:59.403Z,80.90
2017-12-11T08:47:26.847Z,81.00
2017-12-11T08:49:55.052Z,81.10
2017-12-11T08:52:22.486Z,81.00
2017-12-11T08:54:49.919Z,81.20
2017-12-11T08:57:18.141Z,81.20
2017-12-11T08:59:45.561Z,81.20
2017-12-11T09:02:13.760Z,81.30
2017-12-11T09:04:41.207Z,81.20
2017-12-11T09:07:08.629Z,81.20
2017-12-11T09:09:36.070Z,81.30
2017-12-11T09:12:03.501Z,81.30
2017-12-11T09:14:30.967Z,81.30
2017-12-11T09:16:58.404Z,81.30
2017-12-11T09:19:25.834Z,81.40
2017-12-11T09:21:54.054Z,81.50
2017-12-11T09:24:21.497Z,81.50
2017-12-11T09:26:48.938Z,81.40
2017-12-11T09:29:16.385Z,81.50
2017-12-11T09:31:43.806Z,81.50
2017-12-11T09:34:11.253Z,81.60
2017-12-11T09:36:38.687Z,81.60
2017-12-11T09:39:06.122Z,81.50
2017-12-11T09:41:33.556Z,81.50
2017-12-11T09:44:01.774Z,81.70
2017-12-11T09:46:29.198Z,81.70
2017-12-11T09:48:57.478Z,81.70
2017-12-11T09:51:24.862Z,81.70
2017-12-11T09:53:52.299Z,81.70
2017-12-11T09:56:19.739Z,81.70
2017-12-11T09:58:47.928Z,82.60
2017-12-11T10:01:15.356Z,81.70
2017-12-11T10:03:42.791Z,81.70
2017-12-11T10:06:10.252Z,81.90
2017-12-11T10:08:37.686Z,82.00
2017-12-11T10:11:05.122Z,81.90
2017-12-11T10:13:32.561Z,81.90
2017-12-11T10:15:59.994Z,81.90
2017-12-11T10:18:27.446Z,82.00
2017-12-11T10:20:54.884Z,82.00
2017-12-11T10:23:22.318Z,82.00
2017-12-11T10:25:49.762Z,82.00
2017-12-11T10:28:17.198Z,82.10
2017-12-11T10:30:45.428Z,82.20
2017-12-11T10:33:12.866Z,82.20
2017-12-11T10:35:40.316Z,82.20
2017-12-11T10:38:07.756Z,82.20
2017-12-11T10:40:35.191Z,82.20
2017-12-11T10:43:03.424Z,82.20
2017-12-11T10:45:30.867Z,82.20
2017-12-11T10:47:58.298Z,82.40
2017-12-11T10:50:25.738Z,82.50
2017-12-11T10:52:53.942Z,83.20
2017-12-11T10:55:21.381Z,82.40
2017-12-11T10:57:48.809Z,82.50
2017-12-11T11:00:16.254Z,82.50
2017-12-11T11:02:43.707Z,82.50
2017-12-11T11:05:11.139Z,82.50
2017-12-11T11:07:38.592Z,82.70
2017-12-11T11:10:06.009Z,82.70
2017-12-11T11:12:34.224Z,82.80
2017-12-11T11:15:01.646Z,82.80
2017-12-11T11:17:29.871Z,82.80
2017-12-11T11:19:57.318Z,82.80
2017-12-11T11:22:24.742Z,82.90
2017-12-11T11:24:52.954Z,82.90
2017-12-11T11:27:20.391Z,82.80
2017-12-11T11:29:47.826Z,82.80
2017-12-11T11:32:16.036Z,82.90
2017-12-11T11:34:43.498Z,82.90
2017-12-11T11:37:10.930Z,83.00
2017-12-11T11:39:38.353Z,83.00
2017-12-11T11:42:05.798Z,83.10
2017-12-11T11:44:33.243Z,83.00
2017-12-11T11:47:00.700Z,83.00
2017-12-11T11:49:28.134Z,83.10
2017-12-11T11:51:55.590Z,83.10
2017-12-11T11:54:23.025Z,83.10
2017-12-11T11:59:25.130Z,83.10
2017-12-11T12:01:52.564Z,83.10
2017-12-11T12:04:19.997Z,83.10
2017-12-11T12:06:48.189Z,83.40
2017-12-11T12:09:15.637Z,83.20
2017-12-11T12:11:43.837Z,83.10
2017-12-11T12:14:11.270Z,83.10
2017-12-11T12:16:39.486Z,83.20
2017-12-11T12:19:06.922Z,83.20
2017-12-11T12:21:34.363Z,83.30
2017-12-11T12:24:02.559Z,83.20
2017-12-11T12:26:30.027Z,83.20
2017-12-11T12:28:57.501Z,83.20
2017-12-11T12:31:24.930Z,83.30
2017-12-11T12:33:52.370Z,83.40
2017-12-11T12:36:19.806Z,83.40
2017-12-11T12:38:47.253Z,83.30
2017-12-11T12:41:14.695Z,83.30
2017-12-11T12:43:42.134Z,83.60
2017-12-11T12:46:09.591Z,83.50
2017-12-11T12:48:37.035Z,83.60
2017-12-11T12:51:04.470Z,83.50
2017-12-11T12:53:31.902Z,83.50
2017-12-11T12:55:59.339Z,83.50
2017-12-11T12:58:26.787Z,83.60
2017-12-11T13:00:54.225Z,83.50
2017-12-11T13:03:21.682Z,83.50
2017-12-11T13:05:49.127Z,83.70
2017-12-11T13:08:16.563Z,83.70
2017-12-11T13:10:44.779Z,83.70
2017-12-11T13:13:12.226Z,83.70
2017-12-11T13:15:39.671Z,83.80
2017-12-11T13:18:07.102Z,83.70
2017-12-11T13:20:35.315Z,84.10
2017-12-11T13:23:02.751Z,84.10
2017-12-11T13:25:30.178Z,84.00
2017-12-11T13:27:58.386Z,85.10
2017-12-11T13:30:25.823Z,85.10
2017-12-11T13:32:54.034Z,85.20
2017-12-11T13:35:21.470Z,85.10
2017-12-11T13:37:48.935Z,84.90
2017-12-11T13:40:16.366Z,84.10
2017-12-11T13:42:44.574Z,83.70
2017-12-11T13:45:12.015Z,83.60
2017-12-11T13:47:39.453Z,83.70
2017-12-11T13:50:07.654Z,83.90
2017-12-11T13:52:35.086Z,83.90
2017-12-11T13:55:03.305Z,84.30
2017-12-11T13:57:30.753Z,84.30
2017-12-11T13:59:58.183Z,84.40
2017-12-11T14:02:25.622Z,84.50
2017-12-11T14:04:53.830Z,84.50
2017-12-11T14:07:21.277Z,84.50
2017-12-11T14:09:48.715Z,84.50
2017-12-11T14:12:16.939Z,84.70
2017-12-11T14:14:44.375Z,84.50
2017-12-11T14:17:11.807Z,84.50
2017-12-11T14:19:40.024Z,84.80
2017-12-11T14:22:07.463Z,84.60
2017-12-11T14:24:34.902Z,85.00
2017-12-11T14:27:03.101Z,85.10
2017-12-11T14:29:30.568Z,85.10
2017-12-11T14:31:57.989Z,85.10
2017-12-11T14:34:26.192Z,85.00
2017-12-11T14:36:53.634Z,85.00
2017-12-11T14:39:21.071Z,85.10
2017-12-11T14:41:49.274Z,85.10
2017-12-11T14:44:16.706Z,85.10
2017-12-11T14:46:44.931Z,85.10
2017-12-11T14:49:12.377Z,85.10
2017-12-11T14:51:39.810Z,85.00
2017-12-11T14:54:07.252Z,85.00
2017-12-11T14:56:35.454Z,85.10
2017-12-11T14:59:02.903Z,85.10
2017-12-11T15:01:30.334Z,85.00
2017-12-11T15:03:58.554Z,85.10
2017-12-11T15:06:25.993Z,85.00
2017-12-11T15:08:53.422Z,85.10
2017-12-11T15:11:21.644Z,85.30
2017-12-11T15:13:49.079Z,85.20
2017-12-11T15:16:16.532Z,85.20
2017-12-11T15:18:43.970Z,85.20
2017-12-11T15:21:12.198Z,85.40
2017-12-11T15:23:39.644Z,85.20
2017-12-11T15:26:07.083Z,85.70
2017-12-11T15:28:34.527Z,85.70
2017-12-11T15:31:01.995Z,85.60
2017-12-11T15:33:30.199Z,86.30
2017-12-11T15:35:57.635Z,85.90
2017-12-11T15:38:25.063Z,85.60
2017-12-11T15:40:53.266Z,85.60
2017-12-11T15:43:20.694Z,85.50
2017-12-11T15:45:48.910Z,85.10
2017-12-11T15:48:16.351Z,85.10
2017-12-11T15:50:43.803Z,85.00
2017-12-11T15:53:11.244Z,85.00
2017-12-11T15:55:39.452Z,85.20
2017-12-11T15:58:06.890Z,85.20
2017-12-11T16:00:34.322Z,85.20
2017-12-11T16:03:02.545Z,85.20
2017-12-11T16:05:29.975Z,85.20
2017-12-11T16:07:58.195Z,85.10
2017-12-11T16:10:25.647Z,85.10
2017-12-11T16:12:53.079Z,85.10
2017-12-11T16:15:20.530Z,85.00
2017-12-11T16:17:47.959Z,85.20
2017-12-11T16:20:16.191Z,85.30
2017-12-11T16:22:43.637Z,85.20
2017-12-11T16:25:11.070Z,85.20
2017-12-11T16:27:38.516Z,85.30
2017-12-11T16:30:06.715Z,85.30
2017-12-11T16:32:34.171Z,85.30
2017-12-11T16:35:01.608Z,85.30
2017-12-11T16:37:29.816Z,85.40
2017-12-11T16:39:57.260Z,85.40
2017-12-11T16:42:24.696Z,85.40
2017-12-11T16:44:52.912Z,86.00
2017-12-11T16:47:20.356Z,85.30
2017-12-11T16:49:47.812Z,85.40
2017-12-11T16:52:16.013Z,85.40
2017-12-11T16:54:43.454Z,85.40
2017-12-11T16:57:10.906Z,85.40
2017-12-11T16:59:38.331Z,85.50
2017-12-11T17:02:05.775Z,85.60
2017-12-11T17:04:33.973Z,85.60
2017-12-11T17:07:01.417Z,85.60
2017-12-11T17:09:29.625Z,85.60
2017-12-11T17:11:57.058Z,85.60
2017-12-11T17:14:24.502Z,85.40
2017-12-11T17:16:52.715Z,85.40
2017-12-11T17:19:20.173Z,85.30
2017-12-11T17:21:47.600Z,85.20
2017-12-11T17:24:15.052Z,85.10
2017-12-11T17:26:43.300Z,85.00
2017-12-11T17:29:10.697Z,85.00
2017-12-11T17:31:38.130Z,84.70
2017-12-11T17:34:06.344Z,84.60
2017-12-11T17:36:33.790Z,84.60
2017-12-11T17:39:01.216Z,84.40
2017-12-11T17:41:29.437Z,84.10
2017-12-11T17:43:56.872Z,84.10
2017-12-11T17:46:24.302Z,84.20
2017-12-11T17:48:52.517Z,84.30
2017-12-11T17:51:19.943Z,84.30
2017-12-11T17:53:48.162Z,84.50
2017-12-11T17:56:15.614Z,84.50
2017-12-11T17:58:47.887Z,84.60
2017-12-11T18:01:15.330Z,84.70
2017-12-11T18:03:42.771Z,84.90
2017-12-11T18:06:10.227Z,85.00
2017-12-11T18:08:38.430Z,85.00
2017-12-11T18:11:05.895Z,85.00
2017-12-11T18:13:33.321Z,84.90
2017-12-11T18:16:00.802Z,85.00
2017-12-11T18:18:28.241Z,84.80
2017-12-11T18:20:55.670Z,84.70
2017-12-11T18:23:23.906Z,84.60
2017-12-11T18:25:51.348Z,84.50
2017-12-11T18:28:18.782Z,84.50
2017-12-11T18:30:46.269Z,84.40
2017-12-11T18:33:13.706Z,84.50
2017-12-11T18:35:41.177Z,84.30
2017-12-11T18:38:08.619Z,84.30
2017-12-11T18:40:36.051Z,84.00
2017-12-11T18:43:04.265Z,83.80
2017-12-11T18:45:31.702Z,83.70
2017-12-11T18:47:59.147Z,83.70
2017-12-11T18:50:27.367Z,83.30
2017-12-11T18:52:54.830Z,83.30
2017-12-11T18:55:22.279Z,83.20
2017-12-11T18:57:49.729Z,83.00
2017-12-11T19:00:20.090Z,82.80
2017-12-11T19:02:47.527Z,82.80
2017-12-11T19:05:14.965Z,82.40
2017-12-11T19:07:42.398Z,82.30
2017-12-11T19:10:09.867Z,82.40
2017-12-11T19:12:37.295Z,82.50
2017-12-11T19:15:05.499Z,82.60
2017-12-11T19:17:32.939Z,82.50
2017-12-11T19:20:01.143Z,82.20
2017-12-11T19:22:28.596Z,82.20
2017-12-11T19:24:56.030Z,82.30
2017-12-11T19:27:23.493Z,82.30
2017-12-11T19:29:50.934Z,82.30
2017-12-11T19:32:19.153Z,82.40
2017-12-11T19:34:46.569Z,82.40
2017-12-11T19:37:14.007Z,82.40
2017-12-11T19:39:41.451Z,82.30
2017-12-11T19:42:08.893Z,83.00
2017-12-11T19:44:36.367Z,81.90
2017-12-11T19:47:03.805Z,81.40
2017-12-11T19:49:31.255Z,81.80
2017-12-11T19:51:58.712Z,80.60
2017-12-11T19:54:26.159Z,80.90
2017-12-11T19:56:53.598Z,80.50
2017-12-11T19:59:21.043Z,81.20
2017-12-11T20:01:48.518Z,81.00
2017-12-11T20:04:15.969Z,81.20
2017-12-11T20:06:43.403Z,80.90
2017-12-11T20:09:11.621Z,81.00
2017-12-11T20:11:39.055Z,80.90
2017-12-11T20:14:06.514Z,80.70
2017-12-11T20:16:33.952Z,80.20
2017-12-11T20:19:02.188Z,80.60
2017-12-11T20:21:29.630Z,80.60
2017-12-11T20:23:57.081Z,80.60
2017-12-11T20:26:24.545Z,79.70
2017-12-11T20:28:51.972Z,80.40
2017-12-11T20:31:19.415Z,78.90
2017-12-11T20:33:47.625Z,78.50
2017-12-11T20:36:15.154Z,78.50
2017-12-11T20:38:42.594Z,79.40
2017-12-11T20:41:10.798Z,79.30
2017-12-11T20:43:38.238Z,79.30
2017-12-11T20:46:06.451Z,79.60
2017-12-11T20:48:33.966Z,79.70
2017-12-11T20:51:02.158Z,79.50
2017-12-11T20:53:29.606Z,79.60
2017-12-11T20:55:57.042Z,79.30
2017-12-11T20:58:24.506Z,79.80
2017-12-11T21:00:52.719Z,80.00
2017-12-11T21:03:20.146Z,80.70
2017-12-11T21:05:48.370Z,80.10
2017-12-11T21:08:15.802Z,80.10
2017-12-11T21:10:43.242Z,80.10
2017-12-11T21:13:10.675Z,80.00
2017-12-11T21:15:38.127Z,79.80
2017-12-11T21:18:05.563Z,78.30
2017-12-11T21:20:32.992Z,79.00
2017-12-11T21:23:00.434Z,79.20
2017-12-11T21:25:27.873Z,79.50
2017-12-11T21:27:56.097Z,79.90
2017-12-11T21:30:24.297Z,80.10
2017-12-11T21:32:51.738Z,80.10
2017-12-11T21:35:19.187Z,79.40
2017-12-11T21:37:46.635Z,79.80
2017-12-11T21:40:14.097Z,79.90
2017-12-11T21:42:41.533Z,80.20
2017-12-11T21:45:08.990Z,80.20
2017-12-11T21:47:36.431Z,80.30
2017-12-11T21:50:04.654Z,80.30
2017-12-11T21:52:32.112Z,80.30
2017-12-11T21:54:59.550Z,80.00
2017-12-11T21:57:27.007Z,79.20
2017-12-11T21:59:54.464Z,79.60
2017-12-11T22:02:21.903Z,79.20
2017-12-11T22:04:49.332Z,78.90
2017-12-11T22:07:17.541Z,78.20
2017-12-11T22:09:44.966Z,77.80
2017-12-11T22:12:13.185Z,78.10
2017-12-11T22:14:40.622Z,78.10
2017-12-11T22:17:08.059Z,77.50
2017-12-11T22:19:36.262Z,78.30
2017-12-11T22:22:03.694Z,78.30
2017-12-11T22:24:31.913Z,78.30
2017-12-11T22:26:59.363Z,78.30
2017-12-11T22:29:26.802Z,77.80
2017-12-11T22:31:54.241Z,78.30
2017-12-11T22:34:22.453Z,78.00
2017-12-11T22:36:49.904Z,77.90
2017-12-11T22:39:17.322Z,78.30
2017-12-11T22:41:45.526Z,78.80
2017-12-11T22:44:12.978Z,78.80
2017-12-11T22:46:40.410Z,77.70
2017-12-11T22:49:08.614Z,77.90
2017-12-11T22:51:36.046Z,77.90
2017-12-11T22:54:04.259Z,76.10
2017-12-11T22:56:31.699Z,76.10
2017-12-11T22:58:59.168Z,76.60
2017-12-11T23:01:26.589Z,77.20
2017-12-11T23:03:54.805Z,76.90
2017-12-11T23:06:22.230Z,77.00
2017-12-11T23:08:49.669Z,77.40
2017-12-11T23:11:17.111Z,77.00
2017-12-11T23:13:44.542Z,77.70
2017-12-11T23:16:11.972Z,77.30
2017-12-11T23:18:39.406Z,77.70
2017-12-11T23:21:07.620Z,76.90
2017-12-11T23:23:35.051Z,76.90
2017-12-11T23:26:02.494Z,77.50
2017-12-11T23:28:30.710Z,76.60
2017-12-11T23:30:58.141Z,76.60
2017-12-11T23:33:25.572Z,76.10
2017-12-11T23:35:53.775Z,77.00
2017-12-11T23:38:21.215Z,77.00
2017-12-11T23:40:49.431Z,76.80
2017-12-11T23:43:16.890Z,76.80
2017-12-11T23:45:44.322Z,76.60
2017-12-11T23:48:11.759Z,76.90
2017-12-11T23:50:39.970Z,77.20
2017-12-11T23:53:07.395Z,77.30
2017-12-11T23:55:35.594Z,78.80
2017-12-11T23:58:03.026Z,78.70
